sensor_id;sensor_type;location;lat;lon;timestamp;noise_LAeq;noise_LA_min;noise_LA_max;noise_LA01;noise_LA95
73663;Laerm;61956;52.540;13.382;2023-06-10T00:01:50;63.37;57.38;66.92;;
73663;Laerm;61956;52.540;13.382;2023-06-10T00:04:21;63.27;57.45;66.95;;
73663;Laerm;61956;52.540;13.382;2023-06-10T00:06:50;63.23;57.53;66.91;;
73663;Laerm;61956;52.540;13.382;2023-06-10T00:09:22;63.20;57.56;67.47;;
73663;Laerm;61956;52.540;13.382;2023-06-10T00:11:52;63.29;57.54;67.35;;
73663;Laerm;61956;52.540;13.382;2023-06-10T00:14:22;63.32;57.34;66.99;;
73663;Laerm;61956;52.540;13.382;2023-06-10T00:19:21;63.49;58.22;66.48;;
73663;Laerm;61956;52.540;13.382;2023-06-10T00:21:52;63.68;58.41;66.78;;
73663;Laerm;61956;52.540;13.382;2023-06-10T00:24:23;63.64;59.01;66.59;;
73663;Laerm;61956;52.540;13.382;2023-06-10T00:26:53;63.61;58.90;66.62;;
73663;Laerm;61956;52.540;13.382;2023-06-10T00:29:22;63.56;58.81;66.90;;
73663;Laerm;61956;52.540;13.382;2023-06-10T00:31:52;63.62;58.54;66.67;;
73663;Laerm;61956;52.540;13.382;2023-06-10T00:34:23;63.55;58.34;66.86;;
73663;Laerm;61956;52.540;13.382;2023-06-10T00:36:53;63.54;58.38;66.85;;
73663;Laerm;61956;52.540;13.382;2023-06-10T00:39:25;63.57;58.18;67.08;;
73663;Laerm;61956;52.540;13.382;2023-06-10T00:41:54;63.57;58.60;66.84;;
73663;Laerm;61956;52.540;13.382;2023-06-10T00:44:24;63.56;58.22;66.81;;
73663;Laerm;61956;52.540;13.382;2023-06-10T00:46:53;63.54;58.45;66.57;;
73663;Laerm;61956;52.540;13.382;2023-06-10T00:49:22;63.53;58.63;66.68;;
73663;Laerm;61956;52.540;13.382;2023-06-10T00:51:53;63.55;58.84;66.91;;
73663;Laerm;61956;52.540;13.382;2023-06-10T00:54:26;63.55;58.13;66.71;;
73663;Laerm;61956;52.540;13.382;2023-06-10T00:57:00;63.54;58.47;67.02;;
73663;Laerm;61956;52.540;13.382;2023-06-10T00:59:30;63.55;58.64;66.93;;
73663;Laerm;61956;52.540;13.382;2023-06-10T01:02:04;63.50;58.73;67.20;;
73663;Laerm;61956;52.540;13.382;2023-06-10T01:04:35;63.52;58.64;66.88;;
73663;Laerm;61956;52.540;13.382;2023-06-10T01:07:17;63.43;58.05;66.73;;
73663;Laerm;61956;52.540;13.382;2023-06-10T01:10:04;63.52;58.10;67.27;;
73663;Laerm;61956;52.540;13.382;2023-06-10T01:12:43;63.46;58.84;66.29;;
73663;Laerm;61956;52.540;13.382;2023-06-10T01:15:16;63.43;58.87;66.53;;
73663;Laerm;61956;52.540;13.382;2023-06-10T01:17:57;63.49;58.98;66.60;;
73663;Laerm;61956;52.540;13.382;2023-06-10T01:20:31;63.50;58.69;67.22;;
73663;Laerm;61956;52.540;13.382;2023-06-10T01:23:03;63.51;59.05;66.85;;
73663;Laerm;61956;52.540;13.382;2023-06-10T01:25:35;63.48;58.53;66.77;;
73663;Laerm;61956;52.540;13.382;2023-06-10T01:28:17;63.56;58.01;66.51;;
73663;Laerm;61956;52.540;13.382;2023-06-10T01:30:56;63.49;58.53;66.90;;
73663;Laerm;61956;52.540;13.382;2023-06-10T01:33:35;63.49;58.72;66.81;;
73663;Laerm;61956;52.540;13.382;2023-06-10T01:36:07;63.47;58.30;67.10;;
73663;Laerm;61956;52.540;13.382;2023-06-10T01:38:43;63.53;58.52;66.83;;
73663;Laerm;61956;52.540;13.382;2023-06-10T01:41:17;63.48;58.53;66.92;;
73663;Laerm;61956;52.540;13.382;2023-06-10T01:43:48;63.51;58.38;66.71;;
73663;Laerm;61956;52.540;13.382;2023-06-10T01:46:17;63.52;58.42;66.75;;
73663;Laerm;61956;52.540;13.382;2023-06-10T01:48:48;63.49;58.13;66.67;;
73663;Laerm;61956;52.540;13.382;2023-06-10T01:51:18;63.49;58.72;66.77;;
73663;Laerm;61956;52.540;13.382;2023-06-10T01:53:50;63.51;58.47;67.08;;
73663;Laerm;61956;52.540;13.382;2023-06-10T01:56:20;63.47;58.75;66.78;;
73663;Laerm;61956;52.540;13.382;2023-06-10T01:58:49;63.48;57.99;66.86;;
73663;Laerm;61956;52.540;13.382;2023-06-10T02:01:22;63.52;58.50;66.74;;
73663;Laerm;61956;52.540;13.382;2023-06-10T02:03:51;63.54;58.43;66.80;;
73663;Laerm;61956;52.540;13.382;2023-06-10T02:06:20;63.56;58.83;66.58;;
73663;Laerm;61956;52.540;13.382;2023-06-10T02:08:52;63.55;58.30;66.90;;
73663;Laerm;61956;52.540;13.382;2023-06-10T02:11:21;63.58;58.52;66.68;;
73663;Laerm;61956;52.540;13.382;2023-06-10T02:13:51;63.57;58.73;66.81;;
73663;Laerm;61956;52.540;13.382;2023-06-10T02:16:21;63.49;58.21;66.67;;
73663;Laerm;61956;52.540;13.382;2023-06-10T02:18:50;63.54;58.66;66.89;;
73663;Laerm;61956;52.540;13.382;2023-06-10T02:21:21;63.55;58.76;66.74;;
73663;Laerm;61956;52.540;13.382;2023-06-10T02:23:52;63.47;58.70;66.91;;
73663;Laerm;61956;52.540;13.382;2023-06-10T02:26:23;63.49;58.82;67.14;;
73663;Laerm;61956;52.540;13.382;2023-06-10T02:28:53;63.50;58.59;66.57;;
73663;Laerm;61956;52.540;13.382;2023-06-10T02:31:23;63.48;58.91;67.12;;
73663;Laerm;61956;52.540;13.382;2023-06-10T02:33:52;63.56;58.49;66.61;;
73663;Laerm;61956;52.540;13.382;2023-06-10T02:36:22;63.61;58.64;66.78;;
73663;Laerm;61956;52.540;13.382;2023-06-10T02:38:56;63.56;58.55;67.21;;
73663;Laerm;61956;52.540;13.382;2023-06-10T02:41:25;63.61;57.99;66.68;;
73663;Laerm;61956;52.540;13.382;2023-06-10T02:43:55;63.45;58.21;66.72;;
73663;Laerm;61956;52.540;13.382;2023-06-10T02:46:24;63.64;58.32;66.82;;
73663;Laerm;61956;52.540;13.382;2023-06-10T02:48:55;63.61;58.58;66.92;;
73663;Laerm;61956;52.540;13.382;2023-06-10T02:51:28;63.62;58.31;66.79;;
73663;Laerm;61956;52.540;13.382;2023-06-10T02:54:03;63.51;58.42;66.93;;
73663;Laerm;61956;52.540;13.382;2023-06-10T02:56:36;63.63;58.54;69.70;;
73663;Laerm;61956;52.540;13.382;2023-06-10T02:59:12;63.60;58.42;67.09;;
73663;Laerm;61956;52.540;13.382;2023-06-10T03:01:42;63.58;58.77;66.78;;
73663;Laerm;61956;52.540;13.382;2023-06-10T03:04:11;63.61;58.54;66.75;;
73663;Laerm;61956;52.540;13.382;2023-06-10T03:06:51;63.57;58.67;67.06;;
73663;Laerm;61956;52.540;13.382;2023-06-10T03:09:28;63.62;59.02;67.21;;
73663;Laerm;61956;52.540;13.382;2023-06-10T03:12:00;63.66;58.45;69.31;;
73663;Laerm;61956;52.540;13.382;2023-06-10T03:14:34;63.79;58.03;69.41;;
73663;Laerm;61956;52.540;13.382;2023-06-10T03:17:05;63.61;58.59;67.00;;
73663;Laerm;61956;52.540;13.382;2023-06-10T03:19:35;63.52;58.57;66.82;;
73663;Laerm;61956;52.540;13.382;2023-06-10T03:22:11;63.55;58.43;67.21;;
73663;Laerm;61956;52.540;13.382;2023-06-10T03:25:04;63.56;58.29;66.84;;
73663;Laerm;61956;52.540;13.382;2023-06-10T03:27:38;63.61;58.24;67.21;;
73663;Laerm;61956;52.540;13.382;2023-06-10T03:30:10;63.61;58.27;66.98;;
73663;Laerm;61956;52.540;13.382;2023-06-10T03:32:40;63.55;58.42;66.90;;
73663;Laerm;61956;52.540;13.382;2023-06-10T03:35:11;63.56;58.73;66.80;;
73663;Laerm;61956;52.540;13.382;2023-06-10T03:37:41;63.58;58.46;66.66;;
73663;Laerm;61956;52.540;13.382;2023-06-10T03:40:13;63.60;57.82;67.06;;
73663;Laerm;61956;52.540;13.382;2023-06-10T03:42:45;63.53;58.38;67.06;;
73663;Laerm;61956;52.540;13.382;2023-06-10T03:45:16;63.56;58.45;66.95;;
73663;Laerm;61956;52.540;13.382;2023-06-10T03:47:47;63.60;58.54;66.76;;
73663;Laerm;61956;52.540;13.382;2023-06-10T03:50:20;63.56;58.47;66.62;;
73663;Laerm;61956;52.540;13.382;2023-06-10T03:52:51;63.48;58.74;66.52;;
73663;Laerm;61956;52.540;13.382;2023-06-10T03:55:26;63.54;58.60;66.95;;
73663;Laerm;61956;52.540;13.382;2023-06-10T03:57:57;63.53;58.39;67.03;;
73663;Laerm;61956;52.540;13.382;2023-06-10T04:00:27;63.50;58.53;66.87;;
73663;Laerm;61956;52.540;13.382;2023-06-10T04:02:56;63.55;58.63;67.17;;
73663;Laerm;61956;52.540;13.382;2023-06-10T04:05:31;63.59;58.39;69.27;;
73663;Laerm;61956;52.540;13.382;2023-06-10T04:08:00;63.53;57.97;67.07;;
73663;Laerm;61956;52.540;13.382;2023-06-10T04:10:32;63.57;58.63;66.88;;
73663;Laerm;61956;52.540;13.382;2023-06-10T04:13:02;63.56;58.12;67.49;;
73663;Laerm;61956;52.540;13.382;2023-06-10T04:15:38;63.52;58.99;66.82;;
73663;Laerm;61956;52.540;13.382;2023-06-10T04:18:10;63.56;58.30;67.11;;
73663;Laerm;61956;52.540;13.382;2023-06-10T04:20:40;63.64;58.76;69.97;;
73663;Laerm;61956;52.540;13.382;2023-06-10T04:23:11;63.58;58.74;72.37;;
73663;Laerm;61956;52.540;13.382;2023-06-10T04:25:45;63.54;58.89;73.27;;
73663;Laerm;61956;52.540;13.382;2023-06-10T04:28:15;63.51;58.47;66.87;;
73663;Laerm;61956;52.540;13.382;2023-06-10T04:30:44;63.46;58.37;66.63;;
73663;Laerm;61956;52.540;13.382;2023-06-10T04:33:14;63.54;57.85;70.37;;
73663;Laerm;61956;52.540;13.382;2023-06-10T04:35:43;63.44;58.35;66.80;;
73663;Laerm;61956;52.540;13.382;2023-06-10T04:38:14;63.43;58.48;67.75;;
73663;Laerm;61956;52.540;13.382;2023-06-10T04:40:46;63.44;58.42;69.52;;
73663;Laerm;61956;52.540;13.382;2023-06-10T04:43:16;63.47;58.39;66.95;;
73663;Laerm;61956;52.540;13.382;2023-06-10T04:45:46;63.53;58.80;66.68;;
73663;Laerm;61956;52.540;13.382;2023-06-10T04:48:16;63.53;58.72;66.56;;
73663;Laerm;61956;52.540;13.382;2023-06-10T04:50:45;63.46;58.63;66.71;;
73663;Laerm;61956;52.540;13.382;2023-06-10T04:53:16;63.49;58.94;66.75;;
73663;Laerm;61956;52.540;13.382;2023-06-10T04:55:49;63.50;58.69;66.98;;
73663;Laerm;61956;52.540;13.382;2023-06-10T04:58:18;63.67;59.03;71.66;;
73663;Laerm;61956;52.540;13.382;2023-06-10T05:00:47;63.42;58.62;67.01;;
73663;Laerm;61956;52.540;13.382;2023-06-10T05:03:16;63.44;58.61;68.57;;
73663;Laerm;61956;52.540;13.382;2023-06-10T05:05:46;63.45;59.17;66.81;;
73663;Laerm;61956;52.540;13.382;2023-06-10T05:08:15;63.44;58.10;66.45;;
73663;Laerm;61956;52.540;13.382;2023-06-10T05:10:44;63.42;58.40;66.78;;
73663;Laerm;61956;52.540;13.382;2023-06-10T05:13:17;63.58;58.77;68.81;;
73663;Laerm;61956;52.540;13.382;2023-06-10T05:15:46;63.51;59.05;70.09;;
73663;Laerm;61956;52.540;13.382;2023-06-10T05:18:15;63.51;58.71;66.76;;
73663;Laerm;61956;52.540;13.382;2023-06-10T05:20:45;63.45;59.22;70.87;;
73663;Laerm;61956;52.540;13.382;2023-06-10T05:23:14;63.47;59.16;68.15;;
73663;Laerm;61956;52.540;13.382;2023-06-10T05:25:43;63.47;59.33;66.66;;
73663;Laerm;61956;52.540;13.382;2023-06-10T05:28:13;63.61;58.62;66.66;;
73663;Laerm;61956;52.540;13.382;2023-06-10T05:30:44;63.61;58.94;66.67;;
73663;Laerm;61956;52.540;13.382;2023-06-10T05:33:14;63.66;58.66;66.86;;
73663;Laerm;61956;52.540;13.382;2023-06-10T05:35:43;63.62;58.20;66.78;;
73663;Laerm;61956;52.540;13.382;2023-06-10T05:38:12;63.72;59.33;67.20;;
73663;Laerm;61956;52.540;13.382;2023-06-10T05:40:41;63.74;59.14;66.72;;
73663;Laerm;61956;52.540;13.382;2023-06-10T05:43:10;63.78;58.84;66.83;;
73663;Laerm;61956;52.540;13.382;2023-06-10T05:45:40;63.89;58.85;68.08;;
73663;Laerm;61956;52.540;13.382;2023-06-10T05:48:12;63.90;59.17;69.01;;
73663;Laerm;61956;52.540;13.382;2023-06-10T05:50:41;63.93;58.56;70.90;;
73663;Laerm;61956;52.540;13.382;2023-06-10T05:53:14;63.97;59.04;66.93;;
73663;Laerm;61956;52.540;13.382;2023-06-10T05:55:45;64.05;59.22;67.04;;
73663;Laerm;61956;52.540;13.382;2023-06-10T05:58:15;64.09;59.48;69.90;;
73663;Laerm;61956;52.540;13.382;2023-06-10T06:00:44;64.08;59.39;66.83;;
73663;Laerm;61956;52.540;13.382;2023-06-10T06:03:17;64.06;59.35;67.03;;
73663;Laerm;61956;52.540;13.382;2023-06-10T06:05:47;64.01;59.77;67.37;;
73663;Laerm;61956;52.540;13.382;2023-06-10T06:08:16;64.12;58.48;67.84;;
73663;Laerm;61956;52.540;13.382;2023-06-10T06:10:45;64.15;59.79;67.57;;
73663;Laerm;61956;52.540;13.382;2023-06-10T06:13:15;64.18;59.26;66.99;;
73663;Laerm;61956;52.540;13.382;2023-06-10T06:15:44;64.25;59.65;66.98;;
73663;Laerm;61956;52.540;13.382;2023-06-10T06:18:16;64.26;59.14;67.10;;
73663;Laerm;61956;52.540;13.382;2023-06-10T06:20:45;64.29;58.75;67.06;;
73663;Laerm;61956;52.540;13.382;2023-06-10T06:23:14;64.40;59.35;66.94;;
73663;Laerm;61956;52.540;13.382;2023-06-10T06:25:43;64.43;58.62;67.89;;
73663;Laerm;61956;52.540;13.382;2023-06-10T06:28:13;64.20;59.22;67.04;;
73663;Laerm;61956;52.540;13.382;2023-06-10T06:30:42;64.31;59.59;67.22;;
73663;Laerm;61956;52.540;13.382;2023-06-10T06:33:11;64.52;60.05;70.00;;
73663;Laerm;61956;52.540;13.382;2023-06-10T06:35:44;64.35;60.25;67.15;;
73663;Laerm;61956;52.540;13.382;2023-06-10T06:38:13;64.33;59.40;66.96;;
73663;Laerm;61956;52.540;13.382;2023-06-10T06:40:42;64.37;60.24;67.61;;
73663;Laerm;61956;52.540;13.382;2023-06-10T06:43:11;64.36;59.74;69.14;;
73663;Laerm;61956;52.540;13.382;2023-06-10T06:45:57;64.31;60.00;67.14;;
73663;Laerm;61956;52.540;13.382;2023-06-10T06:48:26;64.37;60.41;68.42;;
73663;Laerm;61956;52.540;13.382;2023-06-10T06:50:58;64.30;59.42;67.50;;
73663;Laerm;61956;52.540;13.382;2023-06-10T06:53:27;64.25;59.76;67.00;;
73663;Laerm;61956;52.540;13.382;2023-06-10T06:55:56;64.37;60.24;68.74;;
73663;Laerm;61956;52.540;13.382;2023-06-10T06:58:26;64.32;60.61;66.91;;
73663;Laerm;61956;52.540;13.382;2023-06-10T07:00:55;64.24;60.35;66.91;;
73663;Laerm;61956;52.540;13.382;2023-06-10T07:03:27;64.24;60.54;66.54;;
73663;Laerm;61956;52.540;13.382;2023-06-10T07:05:59;64.18;60.69;66.61;;
73663;Laerm;61956;52.540;13.382;2023-06-10T07:08:28;64.15;59.23;66.91;;
73663;Laerm;61956;52.540;13.382;2023-06-10T07:10:58;64.10;60.35;66.64;;
73663;Laerm;61956;52.540;13.382;2023-06-10T07:13:27;64.16;60.16;66.69;;
73663;Laerm;61956;52.540;13.382;2023-06-10T07:15:56;63.94;59.99;66.65;;
73663;Laerm;61956;52.540;13.382;2023-06-10T07:18:25;64.03;60.34;66.69;;
73663;Laerm;61956;52.540;13.382;2023-06-10T07:20:55;63.85;59.54;66.64;;
73663;Laerm;61956;52.540;13.382;2023-06-10T07:23:27;63.67;59.93;66.35;;
73663;Laerm;61956;52.540;13.382;2023-06-10T07:25:56;63.64;59.84;66.26;;
73663;Laerm;61956;52.540;13.382;2023-06-10T07:28:25;63.69;59.74;68.34;;
73663;Laerm;61956;52.540;13.382;2023-06-10T07:30:54;63.55;59.28;71.76;;
73663;Laerm;61956;52.540;13.382;2023-06-10T07:33:24;63.32;59.45;66.96;;
73663;Laerm;61956;52.540;13.382;2023-06-10T07:35:53;63.22;59.80;65.95;;
73663;Laerm;61956;52.540;13.382;2023-06-10T07:38:22;63.04;59.54;66.05;;
73663;Laerm;61956;52.540;13.382;2023-06-10T07:40:54;63.07;59.44;66.08;;
73663;Laerm;61956;52.540;13.382;2023-06-10T07:43:24;63.38;59.56;73.35;;
73663;Laerm;61956;52.540;13.382;2023-06-10T07:45:53;63.02;59.48;69.16;;
73663;Laerm;61956;52.540;13.382;2023-06-10T07:48:23;63.03;59.28;65.68;;
73663;Laerm;61956;52.540;13.382;2023-06-10T07:50:53;63.06;59.65;65.41;;
73663;Laerm;61956;52.540;13.382;2023-06-10T07:53:22;63.09;59.85;66.06;;
73663;Laerm;61956;52.540;13.382;2023-06-10T07:55:54;63.14;59.61;66.84;;
73663;Laerm;61956;52.540;13.382;2023-06-10T07:58:23;63.28;60.16;66.37;;
73663;Laerm;61956;52.540;13.382;2023-06-10T08:00:54;63.32;59.96;68.00;;
73663;Laerm;61956;52.540;13.382;2023-06-10T08:03:23;63.47;59.78;65.92;;
73663;Laerm;61956;52.540;13.382;2023-06-10T08:05:52;63.33;59.73;68.12;;
73663;Laerm;61956;52.540;13.382;2023-06-10T08:08:21;63.44;59.69;67.16;;
73663;Laerm;61956;52.540;13.382;2023-06-10T08:10:55;63.45;60.14;66.92;;
73663;Laerm;61956;52.540;13.382;2023-06-10T08:13:26;63.30;59.58;65.83;;
73663;Laerm;61956;52.540;13.382;2023-06-10T08:15:56;63.17;59.60;69.27;;
73663;Laerm;61956;52.540;13.382;2023-06-10T08:18:25;63.24;59.21;65.95;;
73663;Laerm;61956;52.540;13.382;2023-06-10T08:20:54;63.16;59.69;68.57;;
73663;Laerm;61956;52.540;13.382;2023-06-10T08:23:24;63.07;59.49;66.72;;
73663;Laerm;61956;52.540;13.382;2023-06-10T08:25:56;63.28;59.03;70.01;;
73663;Laerm;61956;52.540;13.382;2023-06-10T08:28:27;63.37;59.65;72.03;;
73663;Laerm;61956;52.540;13.382;2023-06-10T08:30:56;63.26;58.99;67.02;;
73663;Laerm;61956;52.540;13.382;2023-06-10T08:33:25;63.28;59.27;65.86;;
73663;Laerm;61956;52.540;13.382;2023-06-10T08:35:57;63.28;59.31;65.89;;
73663;Laerm;61956;52.540;13.382;2023-06-10T08:38:27;63.31;59.46;67.06;;
73663;Laerm;61956;52.540;13.382;2023-06-10T08:41:00;63.56;59.85;74.64;;
73663;Laerm;61956;52.540;13.382;2023-06-10T08:43:34;63.54;59.90;74.56;;
73663;Laerm;61956;52.540;13.382;2023-06-10T08:46:09;63.26;59.62;66.16;;
73663;Laerm;61956;52.540;13.382;2023-06-10T08:48:43;63.33;59.30;69.33;;
73663;Laerm;61956;52.540;13.382;2023-06-10T08:51:15;63.27;59.47;66.03;;
73663;Laerm;61956;52.540;13.382;2023-06-10T08:53:53;63.20;59.33;69.30;;
73663;Laerm;61956;52.540;13.382;2023-06-10T08:56:30;63.03;58.64;66.92;;
73663;Laerm;61956;52.540;13.382;2023-06-10T08:59:02;63.31;59.44;69.50;;
73663;Laerm;61956;52.540;13.382;2023-06-10T09:01:32;63.24;59.67;66.12;;
73663;Laerm;61956;52.540;13.382;2023-06-10T09:04:02;64.38;59.09;80.52;;
73663;Laerm;61956;52.540;13.382;2023-06-10T09:06:32;63.51;59.82;66.33;;
73663;Laerm;61956;52.540;13.382;2023-06-10T09:09:02;63.54;59.57;66.33;;
73663;Laerm;61956;52.540;13.382;2023-06-10T09:11:35;63.49;59.30;66.12;;
73663;Laerm;61956;52.540;13.382;2023-06-10T09:14:05;63.54;58.99;66.16;;
73663;Laerm;61956;52.540;13.382;2023-06-10T09:16:34;63.63;59.21;65.90;;
73663;Laerm;61956;52.540;13.382;2023-06-10T09:19:04;63.47;58.62;66.31;;
73663;Laerm;61956;52.540;13.382;2023-06-10T09:21:34;63.30;59.98;66.42;;
73663;Laerm;61956;52.540;13.382;2023-06-10T09:24:05;63.45;59.26;66.32;;
73663;Laerm;61956;52.540;13.382;2023-06-10T09:26:37;63.65;59.45;66.66;;
73663;Laerm;61956;52.540;13.382;2023-06-10T09:29:07;63.64;58.76;67.74;;
73663;Laerm;61956;52.540;13.382;2023-06-10T09:31:39;63.86;58.87;66.72;;
73663;Laerm;61956;52.540;13.382;2023-06-10T09:34:11;63.72;59.16;66.74;;
73663;Laerm;61956;52.540;13.382;2023-06-10T09:36:41;63.49;59.09;66.05;;
73663;Laerm;61956;52.540;13.382;2023-06-10T09:39:15;63.88;59.80;66.28;;
73663;Laerm;61956;52.540;13.382;2023-06-10T09:41:49;63.91;60.24;68.47;;
73663;Laerm;61956;52.540;13.382;2023-06-10T09:44:21;63.55;58.94;67.66;;
73663;Laerm;61956;52.540;13.382;2023-06-10T09:46:51;63.89;59.25;66.34;;
73663;Laerm;61956;52.540;13.382;2023-06-10T09:49:20;63.97;60.38;66.67;;
73663;Laerm;61956;52.540;13.382;2023-06-10T09:51:50;63.84;60.09;66.57;;
73663;Laerm;61956;52.540;13.382;2023-06-10T09:54:21;63.86;59.29;66.33;;
73663;Laerm;61956;52.540;13.382;2023-06-10T09:56:53;63.86;60.26;66.45;;
73663;Laerm;61956;52.540;13.382;2023-06-10T09:59:29;63.98;58.75;71.98;;
73663;Laerm;61956;52.540;13.382;2023-06-10T10:02:01;63.90;59.76;66.37;;
73663;Laerm;61956;52.540;13.382;2023-06-10T10:04:31;63.90;60.15;66.55;;
73663;Laerm;61956;52.540;13.382;2023-06-10T10:07:04;63.89;60.53;66.55;;
73663;Laerm;61956;52.540;13.382;2023-06-10T10:09:33;63.85;58.67;66.44;;
73663;Laerm;61956;52.540;13.382;2023-06-10T10:12:10;63.83;59.50;66.82;;
73663;Laerm;61956;52.540;13.382;2023-06-10T10:14:46;63.89;59.78;66.30;;
73663;Laerm;61956;52.540;13.382;2023-06-10T10:17:16;64.08;59.77;70.23;;
73663;Laerm;61956;52.540;13.382;2023-06-10T10:19:53;63.92;60.41;68.04;;
73663;Laerm;61956;52.540;13.382;2023-06-10T10:22:30;63.92;60.22;68.22;;
73663;Laerm;61956;52.540;13.382;2023-06-10T10:25:07;63.82;60.23;66.32;;
73663;Laerm;61956;52.540;13.382;2023-06-10T10:27:48;63.87;59.93;66.40;;
73663;Laerm;61956;52.540;13.382;2023-06-10T10:30:21;63.80;60.43;66.85;;
73663;Laerm;61956;52.540;13.382;2023-06-10T10:32:57;63.85;59.64;66.23;;
73663;Laerm;61956;52.540;13.382;2023-06-10T10:35:27;63.80;59.71;66.75;;
73663;Laerm;61956;52.540;13.382;2023-06-10T10:37:57;63.52;58.65;66.28;;
73663;Laerm;61956;52.540;13.382;2023-06-10T10:40:28;63.80;59.28;66.28;;
73663;Laerm;61956;52.540;13.382;2023-06-10T10:43:02;63.80;60.02;66.13;;
73663;Laerm;61956;52.540;13.382;2023-06-10T10:45:33;63.84;60.16;70.08;;
73663;Laerm;61956;52.540;13.382;2023-06-10T10:48:08;65.33;61.99;72.86;;
73663;Laerm;61956;52.540;13.382;2023-06-10T10:50:39;64.13;59.67;72.32;;
73663;Laerm;61956;52.540;13.382;2023-06-10T10:53:09;63.74;59.21;72.13;;
73663;Laerm;61956;52.540;13.382;2023-06-10T10:55:38;63.79;60.32;66.26;;
73663;Laerm;61956;52.540;13.382;2023-06-10T10:58:13;63.58;60.49;68.28;;
73663;Laerm;61956;52.540;13.382;2023-06-10T11:00:45;63.70;59.04;66.21;;
73663;Laerm;61956;52.540;13.382;2023-06-10T11:03:16;63.68;60.50;66.21;;
73663;Laerm;61956;52.540;13.382;2023-06-10T11:05:47;63.67;59.98;67.02;;
73663;Laerm;61956;52.540;13.382;2023-06-10T11:08:46;63.73;59.77;66.55;;
73663;Laerm;61956;52.540;13.382;2023-06-10T11:11:23;63.60;59.94;66.28;;
73663;Laerm;61956;52.540;13.382;2023-06-10T11:14:07;63.53;60.03;66.94;;
73663;Laerm;61956;52.540;13.382;2023-06-10T11:16:42;63.64;59.17;66.10;;
73663;Laerm;61956;52.540;13.382;2023-06-10T11:19:32;63.62;59.62;66.65;;
73663;Laerm;61956;52.540;13.382;2023-06-10T11:22:05;63.61;58.60;66.20;;
73663;Laerm;61956;52.540;13.382;2023-06-10T11:24:35;63.47;59.93;66.52;;
73663;Laerm;61956;52.540;13.382;2023-06-10T11:27:19;63.50;60.03;66.16;;
73663;Laerm;61956;52.540;13.382;2023-06-10T11:30:25;63.57;59.96;65.99;;
73663;Laerm;61956;52.540;13.382;2023-06-10T11:32:55;63.54;59.82;66.07;;
73663;Laerm;61956;52.540;13.382;2023-06-10T11:35:25;63.37;60.36;66.17;;
73663;Laerm;61956;52.540;13.382;2023-06-10T11:37:54;63.51;59.53;66.22;;
73663;Laerm;61956;52.540;13.382;2023-06-10T11:40:24;63.78;60.38;67.82;;
73663;Laerm;61956;52.540;13.382;2023-06-10T11:42:53;63.37;59.39;66.19;;
73663;Laerm;61956;52.540;13.382;2023-06-10T11:45:25;63.29;59.91;65.97;;
73663;Laerm;61956;52.540;13.382;2023-06-10T11:47:58;63.24;58.63;66.10;;
73663;Laerm;61956;52.540;13.382;2023-06-10T11:50:32;63.41;59.36;66.05;;
73663;Laerm;61956;52.540;13.382;2023-06-10T11:53:02;63.41;59.48;65.87;;
73663;Laerm;61956;52.540;13.382;2023-06-10T11:55:42;63.39;59.26;66.16;;
73663;Laerm;61956;52.540;13.382;2023-06-10T11:58:15;63.38;58.83;65.97;;
73663;Laerm;61956;52.540;13.382;2023-06-10T12:00:49;63.40;59.22;66.24;;
73663;Laerm;61956;52.540;13.382;2023-06-10T12:03:20;63.36;59.71;70.49;;
73663;Laerm;61956;52.540;13.382;2023-06-10T12:05:57;63.39;59.22;66.06;;
73663;Laerm;61956;52.540;13.382;2023-06-10T12:08:27;63.33;59.27;65.87;;
73663;Laerm;61956;52.540;13.382;2023-06-10T12:10:57;63.43;58.83;71.40;;
73663;Laerm;61956;52.540;13.382;2023-06-10T12:13:27;63.30;59.08;66.05;;
73663;Laerm;61956;52.540;13.382;2023-06-10T12:16:10;63.34;58.71;66.06;;
73663;Laerm;61956;52.540;13.382;2023-06-10T12:18:39;63.32;58.25;66.20;;
73663;Laerm;61956;52.540;13.382;2023-06-10T12:21:17;63.38;59.80;65.77;;
73663;Laerm;61956;52.540;13.382;2023-06-10T12:24:05;63.37;59.20;65.77;;
73663;Laerm;61956;52.540;13.382;2023-06-10T12:26:42;63.34;59.32;66.84;;
73663;Laerm;61956;52.540;13.382;2023-06-10T12:29:22;63.35;59.20;66.01;;
73663;Laerm;61956;52.540;13.382;2023-06-10T12:32:00;63.21;59.31;66.13;;
73663;Laerm;61956;52.540;13.382;2023-06-10T12:34:36;63.25;59.04;65.81;;
73663;Laerm;61956;52.540;13.382;2023-06-10T12:37:11;63.30;59.75;65.95;;
73663;Laerm;61956;52.540;13.382;2023-06-10T12:39:51;63.23;59.48;65.71;;
73663;Laerm;61956;52.540;13.382;2023-06-10T12:42:23;63.02;59.32;67.74;;
73663;Laerm;61956;52.540;13.382;2023-06-10T12:44:54;62.99;59.37;68.94;;
73663;Laerm;61956;52.540;13.382;2023-06-10T12:47:35;63.18;59.09;65.94;;
73663;Laerm;61956;52.540;13.382;2023-06-10T12:50:09;63.05;58.69;65.99;;
73663;Laerm;61956;52.540;13.382;2023-06-10T12:52:38;62.96;58.63;65.69;;
73663;Laerm;61956;52.540;13.382;2023-06-10T12:55:08;63.23;59.49;65.80;;
73663;Laerm;61956;52.540;13.382;2023-06-10T12:57:37;63.18;59.26;68.65;;
73663;Laerm;61956;52.540;13.382;2023-06-10T13:00:18;63.02;59.25;65.81;;
73663;Laerm;61956;52.540;13.382;2023-06-10T13:02:52;62.98;58.83;65.85;;
73663;Laerm;61956;52.540;13.382;2023-06-10T13:05:22;63.06;59.45;65.76;;
73663;Laerm;61956;52.540;13.382;2023-06-10T13:07:51;63.14;59.26;66.08;;
73663;Laerm;61956;52.540;13.382;2023-06-10T13:10:21;62.96;59.00;65.79;;
73663;Laerm;61956;52.540;13.382;2023-06-10T13:12:51;63.16;59.26;65.87;;
73663;Laerm;61956;52.540;13.382;2023-06-10T13:15:21;63.50;60.61;65.62;;
73663;Laerm;61956;52.540;13.382;2023-06-10T13:17:55;62.98;58.85;65.71;;
73663;Laerm;61956;52.540;13.382;2023-06-10T13:20:24;63.13;59.71;65.97;;
73663;Laerm;61956;52.540;13.382;2023-06-10T13:22:54;63.09;59.18;65.68;;
73663;Laerm;61956;52.540;13.382;2023-06-10T13:25:23;63.03;59.32;65.83;;
73663;Laerm;61956;52.540;13.382;2023-06-10T13:27:52;63.14;59.35;66.02;;
73663;Laerm;61956;52.540;13.382;2023-06-10T13:30:22;63.11;59.06;65.56;;
73663;Laerm;61956;52.540;13.382;2023-06-10T13:32:55;63.07;59.15;68.88;;
73663;Laerm;61956;52.540;13.382;2023-06-10T13:35:24;62.99;59.40;74.38;;
73663;Laerm;61956;52.540;13.382;2023-06-10T13:37:53;63.11;59.21;67.61;;
73663;Laerm;61956;52.540;13.382;2023-06-10T13:40:23;62.89;58.89;65.46;;
73663;Laerm;61956;52.540;13.382;2023-06-10T13:42:52;62.94;58.82;65.93;;
73663;Laerm;61956;52.540;13.382;2023-06-10T13:45:21;62.99;58.93;66.11;;
73663;Laerm;61956;52.540;13.382;2023-06-10T13:47:51;63.07;59.56;65.95;;
73663;Laerm;61956;52.540;13.382;2023-06-10T13:50:23;63.16;59.60;67.19;;
73663;Laerm;61956;52.540;13.382;2023-06-10T13:52:52;62.89;59.35;65.63;;
73663;Laerm;61956;52.540;13.382;2023-06-10T13:55:22;62.96;59.46;67.26;;
73663;Laerm;61956;52.540;13.382;2023-06-10T13:57:53;62.81;59.10;65.87;;
73663;Laerm;61956;52.540;13.382;2023-06-10T14:00:24;62.99;59.13;65.45;;